Harve-St-Pierre, Canada
Current Conditions -  °F | °C
As of 6:00 AM on Saturday 20 Dec 2014 (Local Time) from CYGV Reporting Station
Clear Clear  
Wind Chill: -4°   Ceiling: Unl
Heat Index:   Visibility: 9mi
Dew Point:   Wind: 8mph
Humidity: 85%   Direction: 10°N
Pressure: 30.31"   Gusts: NA
Location:  50.24°N, 63.6°W
Report Text: CYGV 201000Z AUTO 01007KT 9SM CLR M13/M15 A3031 RMK SLP266
Loading
Personal Weather Stations






























Interactive Weather Map New forecast layout! Learn more

10-Day Weather Forecast

Advertisements
Track Severe Weather on mobile